Boyne City, Michigan
Current Conditions -  °F | °C
As of 12:34 AM on Wednesday 26 Nov 2014 (Local Time) from KCVX Reporting Station
Overcast Overcast  
Wind Chill: 23°   Ceiling: 3000
Heat Index: 28°   Visibility: 10mi
Dew Point: 21°   Wind: 5mph
Humidity: 76%   Direction: 200°SSW
Pressure: 30.18"   Gusts: NA
Location:  45.22°N, 85.01°W
Report Text: KCVX 260534Z AUTO 20004KT 10SM OVC030 M02/M06 A3018 RMK AO2 T10221059
Loading
Personal Weather Stations






























Interactive Weather Map New forecast layout! Learn more

10-Day Weather Forecast

Advertisements
Track Severe Weather on mobile